createdAt,value
2023-04-10T00:01:16.166Z,22.67
2023-04-10T00:03:45.162Z,22.65
2023-04-10T00:06:11.950Z,21.95
2023-04-10T00:08:38.704Z,23.02
2023-04-10T00:11:05.583Z,23.45
2023-04-10T00:13:32.628Z,22.92
2023-04-10T00:15:59.265Z,22.92
2023-04-10T00:18:25.952Z,22.98
2023-04-10T00:20:52.611Z,24.02
2023-04-10T00:23:19.289Z,23.75
2023-04-10T00:25:47.710Z,23.17
2023-04-10T00:28:14.452Z,24.15
2023-04-10T00:30:42.593Z,23.13
2023-04-10T00:33:09.373Z,24.05
2023-04-10T00:35:37.185Z,24.63
2023-04-10T00:38:03.897Z,24.42
2023-04-10T00:40:31.824Z,25.52
2023-04-10T00:42:58.535Z,25.75
2023-04-10T00:45:27.319Z,26.17
2023-04-10T00:48:04.146Z,25.17
2023-04-10T00:50:33.714Z,27.08
2023-04-10T00:53:03.305Z,26.10
2023-04-10T00:55:30.360Z,27.58
2023-04-10T00:58:00.824Z,27.45
2023-04-10T01:00:30.505Z,26.25
2023-04-10T01:02:58.782Z,25.73
2023-04-10T01:05:34.825Z,27.35
2023-04-10T01:08:35.574Z,27.30
2023-04-10T01:11:09.451Z,27.15
2023-04-10T01:13:49.907Z,27.98
2023-04-10T01:16:22.515Z,27.25
2023-04-10T01:18:58.468Z,27.58
2023-04-10T01:21:25.979Z,27.45
2023-04-10T01:24:30.067Z,26.55
2023-04-10T01:27:23.427Z,26.88
2023-04-10T01:29:55.865Z,26.27
2023-04-10T01:32:24.402Z,26.95
2023-04-10T01:34:54.390Z,26.17
2023-04-10T01:37:27.410Z,25.90
2023-04-10T01:40:01.280Z,25.98
2023-04-10T01:42:31.946Z,26.08
2023-04-10T01:45:00.804Z,25.10
2023-04-10T01:47:27.818Z,25.75
2023-04-10T01:49:57.307Z,25.15
2023-04-10T01:52:25.030Z,25.38
2023-04-10T01:54:53.080Z,25.40
2023-04-10T01:57:20.768Z,26.63
2023-04-10T01:59:47.748Z,27.08
2023-04-10T02:02:14.561Z,26.10
2023-04-10T02:04:42.671Z,25.92
2023-04-10T02:07:15.331Z,24.33
2023-04-10T02:09:48.139Z,24.25
2023-04-10T02:12:22.437Z,24.77
2023-04-10T02:14:50.259Z,24.20
2023-04-10T02:17:23.027Z,24.45
2023-04-10T02:19:53.156Z,24.98
2023-04-10T02:22:20.519Z,24.83
2023-04-10T02:24:47.704Z,24.92
2023-04-10T02:27:14.381Z,27.05
2023-04-10T02:29:41.329Z,27.35
2023-04-10T02:32:09.341Z,26.38
2023-04-10T02:34:36.428Z,27.45
2023-04-10T02:37:04.223Z,28.73
2023-04-10T02:39:30.854Z,29.20
2023-04-10T02:41:58.805Z,28.38
2023-04-10T02:44:25.752Z,29.48
2023-04-10T02:46:52.858Z,28.40
2023-04-10T02:49:20.841Z,26.92
2023-04-10T02:51:47.611Z,27.98
2023-04-10T02:54:14.603Z,27.52
2023-04-10T02:56:41.432Z,26.05
2023-04-10T02:59:08.263Z,27.45
2023-04-10T03:01:35.043Z,26.70
2023-04-10T03:04:02.178Z,28.55
2023-04-10T03:06:29.071Z,26.67
2023-04-10T03:08:56.124Z,27.02
2023-04-10T03:11:23.232Z,27.13
2023-04-10T03:13:50.131Z,26.45
2023-04-10T03:16:17.082Z,28.80
2023-04-10T03:18:43.843Z,28.83
2023-04-10T03:21:10.533Z,29.23
2023-04-10T03:23:37.259Z,29.17
2023-04-10T03:26:04.079Z,29.45
2023-04-10T03:28:31.165Z,29.52
2023-04-10T03:30:57.896Z,30.23
2023-04-10T03:33:24.759Z,29.00
2023-04-10T03:35:52.911Z,29.35
2023-04-10T03:38:19.747Z,31.00
2023-04-10T03:40:47.518Z,30.42
2023-04-10T03:43:15.745Z,30.63
2023-04-10T03:45:43.574Z,30.73
2023-04-10T03:48:12.486Z,31.30
2023-04-10T03:50:40.836Z,29.65
2023-04-10T03:53:09.563Z,30.15
2023-04-10T03:55:38.087Z,29.92
2023-04-10T03:58:05.680Z,31.13
2023-04-10T04:00:33.536Z,30.40
2023-04-10T04:03:00.403Z,31.48
2023-04-10T04:05:27.252Z,30.60
2023-04-10T04:07:53.958Z,30.13
2023-04-10T04:10:20.918Z,30.02
2023-04-10T04:12:47.597Z,29.15
2023-04-10T04:15:14.380Z,28.95
2023-04-10T04:17:41.929Z,30.02
2023-04-10T04:20:09.413Z,30.30
2023-04-10T04:22:37.208Z,28.85
2023-04-10T04:25:04.819Z,30.35
2023-04-10T04:27:32.752Z,28.90
2023-04-10T04:29:59.504Z,30.85
2023-04-10T04:32:28.012Z,31.15
2023-04-10T04:34:56.337Z,29.85
2023-04-10T04:37:23.426Z,29.38
2023-04-10T04:39:52.744Z,30.25
2023-04-10T04:42:20.666Z,31.33
2023-04-10T04:44:50.419Z,28.73
2023-04-10T04:47:17.178Z,29.42
2023-04-10T04:49:45.097Z,29.67
2023-04-10T04:52:12.104Z,29.85
2023-04-10T04:54:38.770Z,29.67
2023-04-10T04:57:08.145Z,29.98
2023-04-10T04:59:35.299Z,30.20
2023-04-10T05:02:02.275Z,29.27
2023-04-10T05:04:29.299Z,31.63
2023-04-10T05:06:56.067Z,29.02
2023-04-10T05:09:22.822Z,29.13
2023-04-10T05:11:49.534Z,30.70
2023-04-10T05:14:16.277Z,29.27
2023-04-10T05:16:43.021Z,29.77
2023-04-10T05:19:09.789Z,30.13
2023-04-10T05:21:37.723Z,29.42
2023-04-10T05:24:05.498Z,30.30
2023-04-10T05:26:33.218Z,28.45
2023-04-10T05:28:59.908Z,28.80
2023-04-10T05:31:27.886Z,29.08
2023-04-10T05:33:55.882Z,30.67
2023-04-10T05:36:24.165Z,28.85
2023-04-10T05:38:51.466Z,27.15
2023-04-10T05:41:19.755Z,26.75
2023-04-10T05:43:46.694Z,26.85
2023-04-10T05:46:13.756Z,25.85
2023-04-10T05:48:41.716Z,26.80
2023-04-10T05:51:10.742Z,25.65
2023-04-10T05:53:38.936Z,25.40
2023-04-10T05:56:06.456Z,25.40
2023-04-10T05:58:37.023Z,27.17
2023-04-10T06:01:06.934Z,24.77
2023-04-10T06:03:37.018Z,25.08
2023-04-10T06:06:07.928Z,24.90
2023-04-10T06:08:46.107Z,24.67
2023-04-10T06:11:16.651Z,24.75
2023-04-10T06:13:46.465Z,25.65
2023-04-10T06:16:13.500Z,26.23
2023-04-10T06:18:43.424Z,24.42
2023-04-10T06:21:11.307Z,25.58
2023-04-10T06:23:38.044Z,25.05
2023-04-10T06:26:05.006Z,24.98
2023-04-10T06:28:31.715Z,24.23
2023-04-10T06:30:58.470Z,24.13
2023-04-10T06:33:26.402Z,24.42
2023-04-10T06:35:53.272Z,24.98
2023-04-10T06:38:20.030Z,25.27
2023-04-10T06:44:11.734Z,26.67
2023-04-10T06:46:47.111Z,27.42
2023-04-10T06:49:17.099Z,26.92
2023-04-10T06:51:47.066Z,27.42
2023-04-10T06:54:14.125Z,28.23
2023-04-10T06:56:40.872Z,31.35
2023-04-10T06:59:08.606Z,33.05
2023-04-10T07:01:35.330Z,35.88
2023-04-10T07:04:14.054Z,41.42
2023-04-10T07:06:52.039Z,43.65
2023-04-10T07:09:21.742Z,41.95
2023-04-10T07:11:58.454Z,41.65
2023-04-10T07:14:28.578Z,41.42
2023-04-10T07:16:57.240Z,43.05
2023-04-10T07:19:24.091Z,43.75
2023-04-10T07:21:56.329Z,43.95
2023-04-10T07:24:28.544Z,46.03
2023-04-10T07:27:04.128Z,47.42
2023-04-10T07:29:34.148Z,48.08
2023-04-10T07:32:08.472Z,50.72
2023-04-10T07:34:37.453Z,49.17
2023-04-10T07:37:14.333Z,48.83
2023-04-10T07:39:50.038Z,49.03
2023-04-10T07:42:20.168Z,47.97
2023-04-10T07:44:46.874Z,47.50
2023-04-10T07:47:14.386Z,47.28
2023-04-10T07:49:41.143Z,46.90
2023-04-10T07:52:08.084Z,45.90
2023-04-10T07:54:35.186Z,45.83
2023-04-10T07:57:02.035Z,45.92
2023-04-10T07:59:28.880Z,46.15
2023-04-10T08:01:56.230Z,46.25
2023-04-10T08:04:23.313Z,48.45
2023-04-10T08:06:50.237Z,46.95
2023-04-10T08:09:17.065Z,48.25
2023-04-10T08:11:43.889Z,48.53
2023-04-10T08:14:10.570Z,47.25
2023-04-10T08:16:37.507Z,49.38
2023-04-10T08:19:13.067Z,48.65
2023-04-10T08:21:44.185Z,49.83
2023-04-10T08:24:12.275Z,50.83
2023-04-10T08:26:39.066Z,50.92
2023-04-10T08:29:07.006Z,49.22
2023-04-10T08:31:33.818Z,49.30
2023-04-10T08:34:00.859Z,49.17
2023-04-10T08:36:27.904Z,48.97
2023-04-10T08:38:54.640Z,48.80
2023-04-10T08:41:21.484Z,46.30
2023-04-10T08:43:48.476Z,45.28
2023-04-10T08:46:16.075Z,44.08
2023-04-10T08:48:47.053Z,43.30
2023-04-10T08:51:26.675Z,41.17
2023-04-10T08:53:58.709Z,38.40
2023-04-10T08:56:26.253Z,39.45
2023-04-10T08:58:53.506Z,38.17
2023-04-10T09:01:21.565Z,36.58
2023-04-10T09:03:48.959Z,38.15
2023-04-10T09:06:16.149Z,37.20
2023-04-10T09:08:44.509Z,35.20
2023-04-10T09:11:11.612Z,34.85
2023-04-10T09:13:43.950Z,34.97
2023-04-10T09:16:13.666Z,35.28
2023-04-10T09:18:41.663Z,36.70
2023-04-10T09:21:10.792Z,34.28
2023-04-10T09:23:38.704Z,32.85
2023-04-10T09:26:26.271Z,33.33
2023-04-10T09:29:13.281Z,31.10
2023-04-10T09:31:40.437Z,28.48
2023-04-10T09:34:21.144Z,28.38
2023-04-10T09:36:58.549Z,28.08
2023-04-10T09:39:38.862Z,27.05
2023-04-10T09:42:06.946Z,23.02
2023-04-10T09:44:37.070Z,20.08
2023-04-10T09:47:20.964Z,25.65
2023-04-10T09:49:48.543Z,24.77
2023-04-10T09:52:19.709Z,24.70
2023-04-10T09:54:46.529Z,24.40
2023-04-10T09:57:17.749Z,23.65
2023-04-10T09:59:51.766Z,24.98
2023-04-10T10:02:20.235Z,23.77
2023-04-10T10:04:48.486Z,23.85
2023-04-10T10:07:17.251Z,23.75
2023-04-10T10:09:45.276Z,24.58
2023-04-10T10:12:27.374Z,26.13
2023-04-10T10:15:31.791Z,25.67
2023-04-10T10:18:10.971Z,26.13
2023-04-10T10:20:39.050Z,25.10
2023-04-10T10:23:07.509Z,23.45
2023-04-10T10:25:35.520Z,23.40
2023-04-10T10:28:05.639Z,23.40
2023-04-10T10:30:35.456Z,23.52
2023-04-10T10:33:06.001Z,22.50
2023-04-10T10:35:36.307Z,17.60
2023-04-10T10:38:04.636Z,17.27
2023-04-10T10:40:31.365Z,17.33
2023-04-10T10:43:12.331Z,16.60
2023-04-10T10:45:58.810Z,15.20
2023-04-10T10:48:28.708Z,15.18
2023-04-10T10:50:56.472Z,15.00
2023-04-10T10:53:44.513Z,15.50
2023-04-10T10:56:20.442Z,14.30
2023-04-10T10:58:47.756Z,13.05
2023-04-10T11:01:15.149Z,11.98
2023-04-10T11:03:44.795Z,14.25
2023-04-10T11:06:18.353Z,14.18
2023-04-10T11:08:49.703Z,13.35
2023-04-10T11:11:26.358Z,13.05
2023-04-10T11:13:56.051Z,12.35
2023-04-10T11:16:43.220Z,13.38
2023-04-10T11:19:15.442Z,14.05
2023-04-10T11:22:06.079Z,12.63
2023-04-10T11:24:56.778Z,13.80
2023-04-10T11:27:46.992Z,13.60
2023-04-10T11:30:33.605Z,13.38
2023-04-10T11:33:01.643Z,14.55
2023-04-10T11:35:28.511Z,12.00
2023-04-10T11:38:15.486Z,12.27
2023-04-10T11:41:02.921Z,11.98
2023-04-10T11:43:34.630Z,11.90
2023-04-10T11:46:07.558Z,11.00
2023-04-10T11:48:37.444Z,10.48
2023-04-10T11:51:13.992Z,11.82
2023-04-10T11:53:46.117Z,10.82
2023-04-10T11:56:20.995Z,10.30
2023-04-10T11:58:52.437Z,10.97
2023-04-10T12:01:24.613Z,11.10
2023-04-10T12:03:54.057Z,11.60
2023-04-10T12:06:21.282Z,9.32
2023-04-10T12:08:51.010Z,11.27
2023-04-10T12:11:23.517Z,10.68
2023-04-10T12:13:56.814Z,10.27
2023-04-10T12:16:25.510Z,10.10
2023-04-10T12:18:54.268Z,8.98
2023-04-10T12:21:23.814Z,8.77
2023-04-10T12:23:51.430Z,8.20
2023-04-10T12:26:25.966Z,9.77
2023-04-10T12:28:55.830Z,9.43
2023-04-10T12:31:36.567Z,9.05
2023-04-10T12:34:04.997Z,9.40
2023-04-10T12:36:32.524Z,8.95
2023-04-10T12:39:02.248Z,9.63
2023-04-10T12:41:31.241Z,9.10
2023-04-10T12:44:20.955Z,8.40
2023-04-10T12:46:47.704Z,7.90
2023-04-10T12:49:16.486Z,9.05
2023-04-10T12:51:50.085Z,8.48
2023-04-10T12:54:31.244Z,8.13
2023-04-10T12:56:58.374Z,8.65
2023-04-10T12:59:25.548Z,7.80
2023-04-10T13:01:53.053Z,8.40
2023-04-10T13:04:19.986Z,7.68
2023-04-10T13:06:48.051Z,7.85
2023-04-10T13:09:15.528Z,7.93
2023-04-10T13:11:42.468Z,8.30
2023-04-10T13:14:09.830Z,7.35
2023-04-10T13:16:36.582Z,7.47
2023-04-10T13:19:03.359Z,7.72
2023-04-10T13:21:30.078Z,8.35
2023-04-10T13:23:57.025Z,8.68
2023-04-10T13:26:24.620Z,7.55
2023-04-10T13:28:51.291Z,8.15
2023-04-10T13:31:18.102Z,8.07
2023-04-10T13:33:48.323Z,9.23
2023-04-10T13:36:15.549Z,8.02
2023-04-10T13:38:43.564Z,8.18
2023-04-10T13:41:10.300Z,8.75
2023-04-10T13:43:38.107Z,8.88
2023-04-10T13:46:05.760Z,8.57
2023-04-10T13:48:40.482Z,8.30
2023-04-10T13:51:09.176Z,8.25
2023-04-10T13:53:36.174Z,8.82
2023-04-10T13:56:05.104Z,8.23
2023-04-10T13:58:33.496Z,8.35
2023-04-10T14:01:01.428Z,7.60
2023-04-10T14:03:28.438Z,7.22
2023-04-10T14:05:58.650Z,7.93
2023-04-10T14:08:26.618Z,8.38
2023-04-10T14:10:54.471Z,7.93
2023-04-10T14:13:22.541Z,7.68
2023-04-10T14:15:49.459Z,7.68
2023-04-10T14:18:16.208Z,7.57
2023-04-10T14:20:43.026Z,7.78
2023-04-10T14:23:10.042Z,8.45
2023-04-10T14:25:36.732Z,8.02
2023-04-10T14:28:03.415Z,8.50
2023-04-10T14:30:30.190Z,8.95
2023-04-10T14:32:57.491Z,9.77
2023-04-10T14:35:24.324Z,9.80
2023-04-10T14:37:51.084Z,9.90
2023-04-10T14:40:17.921Z,11.70
2023-04-10T14:42:44.620Z,9.63
2023-04-10T14:45:11.708Z,10.75
2023-04-10T14:47:41.427Z,10.65
2023-04-10T14:50:15.271Z,13.23
2023-04-10T14:52:55.183Z,10.95
2023-04-10T14:55:21.800Z,9.88
2023-04-10T14:57:48.435Z,9.68
2023-04-10T15:00:15.473Z,9.98
2023-04-10T15:02:42.269Z,9.60
2023-04-10T15:05:09.129Z,9.60
2023-04-10T15:07:35.832Z,9.65
2023-04-10T15:10:02.650Z,9.80
2023-04-10T15:12:31.988Z,10.13
2023-04-10T15:15:07.858Z,9.85
2023-04-10T15:17:37.698Z,9.75
2023-04-10T15:20:12.378Z,9.20
2023-04-10T15:22:50.959Z,9.50
2023-04-10T15:25:18.013Z,9.15
2023-04-10T15:27:46.719Z,9.18
2023-04-10T15:30:18.283Z,10.10
2023-04-10T15:32:45.893Z,8.65
2023-04-10T15:35:16.750Z,8.80
2023-04-10T15:37:43.475Z,8.88
2023-04-10T15:40:11.684Z,9.18
2023-04-10T15:42:38.403Z,9.68
2023-04-10T15:45:05.513Z,9.52
2023-04-10T15:47:32.230Z,8.77
2023-04-10T15:49:59.397Z,8.77
2023-04-10T15:52:26.086Z,8.40
2023-04-10T15:54:52.849Z,8.40
2023-04-10T15:57:19.632Z,9.05
2023-04-10T15:59:46.381Z,8.55
2023-04-10T16:02:13.180Z,7.90
2023-04-10T16:04:40.058Z,8.35
2023-04-10T16:07:06.875Z,7.40
2023-04-10T16:09:33.572Z,9.23
2023-04-10T16:12:00.328Z,8.27
2023-04-10T16:14:27.031Z,8.23
2023-04-10T16:16:56.599Z,7.85
2023-04-10T16:19:23.969Z,8.07
2023-04-10T16:21:57.934Z,8.65
2023-04-10T16:24:24.738Z,7.97
2023-04-10T16:26:51.573Z,8.10
2023-04-10T16:29:18.255Z,8.90
2023-04-10T16:31:45.063Z,9.05
2023-04-10T16:34:13.291Z,9.00
2023-04-10T16:36:40.072Z,8.35
2023-04-10T16:39:08.132Z,10.25
2023-04-10T16:41:34.816Z,9.57
2023-04-10T16:44:08.838Z,9.25
2023-04-10T16:46:36.935Z,8.95
2023-04-10T16:49:04.186Z,9.27
2023-04-10T16:51:32.442Z,14.13
2023-04-10T16:53:59.071Z,14.25
2023-04-10T16:56:27.156Z,12.02
2023-04-10T16:58:54.144Z,9.98
2023-04-10T17:01:23.750Z,9.60
2023-04-10T17:03:51.902Z,9.40
2023-04-10T17:06:18.800Z,9.73
2023-04-10T17:08:45.827Z,9.65
2023-04-10T17:11:12.858Z,10.82
2023-04-10T17:13:42.789Z,10.68
2023-04-10T17:16:10.078Z,10.35
2023-04-10T17:18:36.799Z,11.02
2023-04-10T17:21:03.721Z,9.43
2023-04-10T17:23:30.515Z,9.60
2023-04-10T17:25:57.215Z,9.82
2023-04-10T17:28:23.984Z,9.88
2023-04-10T17:30:50.749Z,9.00
2023-04-10T17:33:17.496Z,9.38
2023-04-10T17:35:44.232Z,11.77
2023-04-10T17:38:11.011Z,10.98
2023-04-10T17:40:44.957Z,10.00
2023-04-10T17:43:11.812Z,10.55
2023-04-10T17:45:41.398Z,10.45
2023-04-10T17:48:08.921Z,9.50
2023-04-10T17:50:39.149Z,10.00
2023-04-10T17:53:07.159Z,9.73
2023-04-10T17:55:40.835Z,9.25
2023-04-10T17:58:10.614Z,9.60
2023-04-10T18:00:37.652Z,9.93
2023-04-10T18:03:14.413Z,10.02
2023-04-10T18:05:49.471Z,10.20
2023-04-10T18:08:16.408Z,9.65
2023-04-10T18:10:49.064Z,10.20
2023-04-10T18:15:54.675Z,10.35
2023-04-10T18:18:24.582Z,9.80
2023-04-10T18:20:58.330Z,18.67
2023-04-10T18:23:25.102Z,14.43
2023-04-10T18:26:02.257Z,10.85
2023-04-10T18:28:39.080Z,10.65
2023-04-10T18:31:09.232Z,10.75
2023-04-10T18:33:42.686Z,10.48
2023-04-10T18:36:11.746Z,10.70
2023-04-10T18:38:48.230Z,12.20
2023-04-10T18:41:14.966Z,11.40
2023-04-10T18:43:42.365Z,11.45
2023-04-10T18:46:13.036Z,13.27
2023-04-10T18:48:43.253Z,11.32
2023-04-10T18:51:11.314Z,11.40
2023-04-10T18:53:38.155Z,11.80
2023-04-10T18:56:08.569Z,11.25
2023-04-10T18:58:38.984Z,11.70
2023-04-10T19:01:13.060Z,11.80
2023-04-10T19:03:41.322Z,11.23
2023-04-10T19:06:11.254Z,11.45
2023-04-10T19:08:39.955Z,10.93
2023-04-10T19:11:08.261Z,11.10
2023-04-10T19:13:34.960Z,11.40
2023-04-10T19:16:06.280Z,10.95
2023-04-10T19:18:33.026Z,11.00
2023-04-10T19:21:00.836Z,10.57
2023-04-10T19:23:30.344Z,11.60
2023-04-10T19:26:04.280Z,10.95
2023-04-10T19:28:43.996Z,11.90
2023-04-10T19:31:10.798Z,12.35
2023-04-10T19:33:42.278Z,11.77
2023-04-10T19:36:15.821Z,11.57
2023-04-10T19:38:44.818Z,13.30
2023-04-10T19:41:27.527Z,11.18
2023-04-10T19:43:56.134Z,11.68
2023-04-10T19:46:23.526Z,11.57
2023-04-10T19:48:51.547Z,11.60
2023-04-10T19:51:19.480Z,11.55
2023-04-10T19:53:47.655Z,11.52
2023-04-10T19:56:18.585Z,11.43
2023-04-10T19:58:55.815Z,11.85
2023-04-10T20:01:23.029Z,11.00
2023-04-10T20:03:52.918Z,10.75
2023-04-10T20:06:20.542Z,11.10
2023-04-10T20:08:47.737Z,10.73
2023-04-10T20:11:14.407Z,11.02
2023-04-10T20:13:41.171Z,10.27
2023-04-10T20:16:08.567Z,10.85
2023-04-10T20:18:36.889Z,10.20
2023-04-10T20:21:09.762Z,10.93
2023-04-10T20:23:37.633Z,10.23
2023-04-10T20:26:06.891Z,9.90
2023-04-10T20:28:36.359Z,11.10
2023-04-10T20:31:03.346Z,10.45
2023-04-10T20:33:30.154Z,10.20
2023-04-10T20:35:59.811Z,9.75
2023-04-10T20:38:29.716Z,9.95
2023-04-10T20:40:56.935Z,10.15
2023-04-10T20:43:25.132Z,9.52
2023-04-10T20:45:51.816Z,9.07
2023-04-10T20:48:28.464Z,9.07
2023-04-10T20:50:56.935Z,9.45
2023-04-10T20:53:23.789Z,9.60
2023-04-10T20:55:53.261Z,9.07
2023-04-10T20:58:24.832Z,9.65
2023-04-10T21:00:52.596Z,8.80
2023-04-10T21:03:20.043Z,9.20
2023-04-10T21:05:46.938Z,10.77
2023-04-10T21:08:13.872Z,9.00
2023-04-10T21:10:40.996Z,10.15
2023-04-10T21:13:07.829Z,9.05
2023-04-10T21:15:34.520Z,9.52
2023-04-10T21:18:01.204Z,8.52
2023-04-10T21:20:28.268Z,9.18
2023-04-10T21:22:54.947Z,9.63
2023-04-10T21:25:21.632Z,9.50
2023-04-10T21:27:48.349Z,9.20
2023-04-10T21:30:15.190Z,10.07
2023-04-10T21:32:41.950Z,8.95
2023-04-10T21:35:11.232Z,8.98
2023-04-10T21:37:39.059Z,9.15
2023-04-10T21:40:07.706Z,9.07
2023-04-10T21:42:37.971Z,9.20
2023-04-10T21:45:06.915Z,9.35
2023-04-10T21:47:33.752Z,9.63
2023-04-10T21:50:00.457Z,10.00
2023-04-10T21:52:27.204Z,8.73
2023-04-10T21:54:53.861Z,9.75
2023-04-10T21:57:20.672Z,9.02
2023-04-10T21:59:47.459Z,9.20
2023-04-10T22:02:14.419Z,9.85
2023-04-10T22:04:54.018Z,8.98
2023-04-10T22:07:24.856Z,9.40
2023-04-10T22:09:54.685Z,9.63
2023-04-10T22:12:22.977Z,10.00
2023-04-10T22:14:51.971Z,10.20
2023-04-10T22:17:18.924Z,9.35
2023-04-10T22:19:45.614Z,9.55
2023-04-10T22:22:12.294Z,9.10
2023-04-10T22:24:39.007Z,9.57
2023-04-10T22:27:05.636Z,9.55
2023-04-10T22:29:33.966Z,9.65
2023-04-10T22:32:00.698Z,9.73
2023-04-10T22:34:27.528Z,9.82
2023-04-10T22:36:54.227Z,9.48
2023-04-10T22:39:20.927Z,9.30
2023-04-10T22:41:47.739Z,9.85
2023-04-10T22:44:14.424Z,9.77
2023-04-10T22:46:41.220Z,9.48
2023-04-10T22:49:09.425Z,9.98
2023-04-10T22:51:36.189Z,9.65
2023-04-10T22:54:04.443Z,10.05
2023-04-10T22:56:31.096Z,9.10
2023-04-10T22:58:59.096Z,9.93
2023-04-10T23:01:25.810Z,9.50
2023-04-10T23:03:54.091Z,9.65
2023-04-10T23:06:21.003Z,9.73
2023-04-10T23:08:48.827Z,9.90
2023-04-10T23:11:20.637Z,9.98
2023-04-10T23:13:47.318Z,9.68
2023-04-10T23:16:14.198Z,9.88
2023-04-10T23:18:41.388Z,9.60
2023-04-10T23:21:08.282Z,10.13
2023-04-10T23:23:35.071Z,10.05
2023-04-10T23:26:02.012Z,9.85
2023-04-10T23:28:28.786Z,9.85
2023-04-10T23:30:55.541Z,10.35
2023-04-10T23:33:22.196Z,9.48
2023-04-10T23:35:48.990Z,9.77
2023-04-10T23:38:15.833Z,9.50
2023-04-10T23:40:43.862Z,9.93
2023-04-10T23:43:10.578Z,9.40
2023-04-10T23:45:38.807Z,9.98
2023-04-10T23:48:06.840Z,9.60
2023-04-10T23:50:34.766Z,9.60
2023-04-10T23:53:02.393Z,10.30
2023-04-10T23:55:29.244Z,10.23
2023-04-10T23:57:55.981Z,9.90
